sensor_id;sensor_type;location;lat;lon;timestamp;temperature;humidity
48043;DHT22;33988;47.992;8.820;2023-07-29T00:01:54;24.20;56.90
48043;DHT22;33988;47.992;8.820;2023-07-29T00:04:23;24.20;57.00
48043;DHT22;33988;47.992;8.820;2023-07-29T00:06:50;24.20;57.00
48043;DHT22;33988;47.992;8.820;2023-07-29T00:09:20;24.20;57.00
48043;DHT22;33988;47.992;8.820;2023-07-29T00:11:49;24.20;57.00
48043;DHT22;33988;47.992;8.820;2023-07-29T00:14:18;24.20;57.00
48043;DHT22;33988;47.992;8.820;2023-07-29T00:16:45;24.20;57.00
48043;DHT22;33988;47.992;8.820;2023-07-29T00:19:12;24.20;57.00
48043;DHT22;33988;47.992;8.820;2023-07-29T00:21:39;24.20;57.00
48043;DHT22;33988;47.992;8.820;2023-07-29T00:24:08;24.20;57.00
48043;DHT22;33988;47.992;8.820;2023-07-29T00:26:35;24.20;57.00
48043;DHT22;33988;47.992;8.820;2023-07-29T00:29:04;24.20;57.00
48043;DHT22;33988;47.992;8.820;2023-07-29T00:31:33;24.20;57.00
48043;DHT22;33988;47.992;8.820;2023-07-29T00:34:03;24.20;57.00
48043;DHT22;33988;47.992;8.820;2023-07-29T00:36:30;24.20;57.00
48043;DHT22;33988;47.992;8.820;2023-07-29T00:38:57;24.10;56.90
48043;DHT22;33988;47.992;8.820;2023-07-29T00:41:25;24.10;56.90
48043;DHT22;33988;47.992;8.820;2023-07-29T00:43:52;24.10;56.90
48043;DHT22;33988;47.992;8.820;2023-07-29T00:46:20;24.10;57.00
48043;DHT22;33988;47.992;8.820;2023-07-29T00:48:48;24.10;57.00
48043;DHT22;33988;47.992;8.820;2023-07-29T00:51:19;24.00;57.00
48043;DHT22;33988;47.992;8.820;2023-07-29T00:53:46;24.00;57.00
48043;DHT22;33988;47.992;8.820;2023-07-29T00:56:13;24.00;57.00
48043;DHT22;33988;47.992;8.820;2023-07-29T00:58:43;24.00;57.10
48043;DHT22;33988;47.992;8.820;2023-07-29T01:01:10;24.00;57.30
48043;DHT22;33988;47.992;8.820;2023-07-29T01:03:37;24.00;57.20
48043;DHT22;33988;47.992;8.820;2023-07-29T01:09:05;24.00;57.20
48043;DHT22;33988;47.992;8.820;2023-07-29T01:12:11;23.90;57.90
48043;DHT22;33988;47.992;8.820;2023-07-29T01:15:02;24.00;57.30
48043;DHT22;33988;47.992;8.820;2023-07-29T01:17:46;23.90;57.40
48043;DHT22;33988;47.992;8.820;2023-07-29T01:20:16;23.90;57.40
48043;DHT22;33988;47.992;8.820;2023-07-29T01:22:44;23.90;57.40
48043;DHT22;33988;47.992;8.820;2023-07-29T01:25:11;23.90;57.40
48043;DHT22;33988;47.992;8.820;2023-07-29T01:27:38;23.90;57.40
48043;DHT22;33988;47.992;8.820;2023-07-29T01:30:07;23.90;57.40
48043;DHT22;33988;47.992;8.820;2023-07-29T01:32:44;23.90;57.40
48043;DHT22;33988;47.992;8.820;2023-07-29T01:35:23;23.90;57.50
48043;DHT22;33988;47.992;8.820;2023-07-29T01:37:56;23.90;57.50
48043;DHT22;33988;47.992;8.820;2023-07-29T01:40:31;23.90;57.40
48043;DHT22;33988;47.992;8.820;2023-07-29T01:42:58;23.90;57.40
48043;DHT22;33988;47.992;8.820;2023-07-29T01:45:25;23.90;57.40
48043;DHT22;33988;47.992;8.820;2023-07-29T01:47:52;23.90;57.40
48043;DHT22;33988;47.992;8.820;2023-07-29T01:50:19;23.80;57.40
48043;DHT22;33988;47.992;8.820;2023-07-29T01:52:46;23.90;57.50
48043;DHT22;33988;47.992;8.820;2023-07-29T01:55:18;23.80;57.40
48043;DHT22;33988;47.992;8.820;2023-07-29T01:57:45;23.80;57.50
48043;DHT22;33988;47.992;8.820;2023-07-29T02:00:12;23.80;57.50
48043;DHT22;33988;47.992;8.820;2023-07-29T02:02:40;23.80;57.50
48043;DHT22;33988;47.992;8.820;2023-07-29T02:05:10;23.80;58.10
48043;DHT22;33988;47.992;8.820;2023-07-29T02:07:39;23.80;57.50
48043;DHT22;33988;47.992;8.820;2023-07-29T02:10:06;23.80;57.50
48043;DHT22;33988;47.992;8.820;2023-07-29T02:12:36;23.80;57.50
48043;DHT22;33988;47.992;8.820;2023-07-29T02:15:03;23.80;57.50
48043;DHT22;33988;47.992;8.820;2023-07-29T02:17:31;23.80;57.50
48043;DHT22;33988;47.992;8.820;2023-07-29T02:19:58;23.80;57.50
48043;DHT22;33988;47.992;8.820;2023-07-29T02:22:25;23.70;57.40
48043;DHT22;33988;47.992;8.820;2023-07-29T02:24:54;23.70;57.50
48043;DHT22;33988;47.992;8.820;2023-07-29T02:27:24;23.70;57.40
48043;DHT22;33988;47.992;8.820;2023-07-29T02:29:54;23.70;57.50
48043;DHT22;33988;47.992;8.820;2023-07-29T02:32:23;23.70;57.50
48043;DHT22;33988;47.992;8.820;2023-07-29T02:34:51;23.70;57.60
48043;DHT22;33988;47.992;8.820;2023-07-29T02:37:17;23.70;57.60
48043;DHT22;33988;47.992;8.820;2023-07-29T02:39:44;23.70;57.60
48043;DHT22;33988;47.992;8.820;2023-07-29T02:42:11;23.70;57.70
48043;DHT22;33988;47.992;8.820;2023-07-29T02:44:41;23.70;57.70
48043;DHT22;33988;47.992;8.820;2023-07-29T02:47:10;23.70;57.70
48043;DHT22;33988;47.992;8.820;2023-07-29T02:49:37;23.60;57.70
48043;DHT22;33988;47.992;8.820;2023-07-29T02:52:04;23.60;57.70
48043;DHT22;33988;47.992;8.820;2023-07-29T02:54:34;23.60;57.70
48043;DHT22;33988;47.992;8.820;2023-07-29T02:57:01;23.60;57.70
48043;DHT22;33988;47.992;8.820;2023-07-29T02:59:27;23.60;57.80
48043;DHT22;33988;47.992;8.820;2023-07-29T03:01:54;23.60;57.70
48043;DHT22;33988;47.992;8.820;2023-07-29T03:04:21;23.60;57.80
48043;DHT22;33988;47.992;8.820;2023-07-29T03:06:49;23.60;57.80
48043;DHT22;33988;47.992;8.820;2023-07-29T03:09:16;23.60;57.80
48043;DHT22;33988;47.992;8.820;2023-07-29T03:11:45;23.60;57.80
48043;DHT22;33988;47.992;8.820;2023-07-29T03:14:12;23.60;57.80
48043;DHT22;33988;47.992;8.820;2023-07-29T03:16:39;23.60;57.80
48043;DHT22;33988;47.992;8.820;2023-07-29T03:19:06;23.60;57.80
48043;DHT22;33988;47.992;8.820;2023-07-29T03:21:36;23.50;57.70
48043;DHT22;33988;47.992;8.820;2023-07-29T03:24:04;23.50;57.70
48043;DHT22;33988;47.992;8.820;2023-07-29T03:26:31;23.60;57.90
48043;DHT22;33988;47.992;8.820;2023-07-29T03:29:00;23.60;57.90
48043;DHT22;33988;47.992;8.820;2023-07-29T03:31:27;23.50;57.80
48043;DHT22;33988;47.992;8.820;2023-07-29T03:33:58;23.50;57.80
48043;DHT22;33988;47.992;8.820;2023-07-29T03:36:27;23.60;57.80
48043;DHT22;33988;47.992;8.820;2023-07-29T03:38:54;23.60;57.80
48043;DHT22;33988;47.992;8.820;2023-07-29T03:41:21;23.50;57.80
48043;DHT22;33988;47.992;8.820;2023-07-29T03:43:50;23.50;57.80
48043;DHT22;33988;47.992;8.820;2023-07-29T03:46:17;23.50;57.80
48043;DHT22;33988;47.992;8.820;2023-07-29T03:48:48;23.50;57.80
48043;DHT22;33988;47.992;8.820;2023-07-29T03:51:15;23.50;57.80
48043;DHT22;33988;47.992;8.820;2023-07-29T03:53:44;23.50;57.80
48043;DHT22;33988;47.992;8.820;2023-07-29T03:56:11;23.50;57.80
48043;DHT22;33988;47.992;8.820;2023-07-29T03:58:37;23.50;57.80
48043;DHT22;33988;47.992;8.820;2023-07-29T04:01:04;23.50;57.80
48043;DHT22;33988;47.992;8.820;2023-07-29T04:03:34;23.50;57.80
48043;DHT22;33988;47.992;8.820;2023-07-29T04:06:01;23.50;57.80
48043;DHT22;33988;47.992;8.820;2023-07-29T04:08:31;23.40;57.80
48043;DHT22;33988;47.992;8.820;2023-07-29T04:10:58;23.40;57.80
48043;DHT22;33988;47.992;8.820;2023-07-29T04:13:25;23.40;57.80
48043;DHT22;33988;47.992;8.820;2023-07-29T04:15:52;23.40;57.80
48043;DHT22;33988;47.992;8.820;2023-07-29T04:18:19;23.40;57.80
48043;DHT22;33988;47.992;8.820;2023-07-29T04:20:46;23.40;57.80
48043;DHT22;33988;47.992;8.820;2023-07-29T04:23:15;23.40;57.90
48043;DHT22;33988;47.992;8.820;2023-07-29T04:25:42;23.40;57.90
48043;DHT22;33988;47.992;8.820;2023-07-29T04:28:09;23.40;57.90
48043;DHT22;33988;47.992;8.820;2023-07-29T04:30:36;23.40;57.90
48043;DHT22;33988;47.992;8.820;2023-07-29T04:33:03;23.40;57.90
48043;DHT22;33988;47.992;8.820;2023-07-29T04:35:30;23.40;57.90
48043;DHT22;33988;47.992;8.820;2023-07-29T04:37:57;23.40;57.90
48043;DHT22;33988;47.992;8.820;2023-07-29T04:40:26;23.40;58.00
48043;DHT22;33988;47.992;8.820;2023-07-29T04:42:53;23.40;58.00
48043;DHT22;33988;47.992;8.820;2023-07-29T04:45:20;23.40;58.10
48043;DHT22;33988;47.992;8.820;2023-07-29T04:47:47;23.40;58.10
48043;DHT22;33988;47.992;8.820;2023-07-29T04:50:16;23.40;58.10
48043;DHT22;33988;47.992;8.820;2023-07-29T04:52:45;23.40;58.10
48043;DHT22;33988;47.992;8.820;2023-07-29T04:55:15;23.40;58.10
48043;DHT22;33988;47.992;8.820;2023-07-29T04:57:44;23.40;58.80
48043;DHT22;33988;47.992;8.820;2023-07-29T05:00:11;23.40;58.10
48043;DHT22;33988;47.992;8.820;2023-07-29T05:02:41;23.40;58.20
48043;DHT22;33988;47.992;8.820;2023-07-29T05:05:08;23.40;58.20
48043;DHT22;33988;47.992;8.820;2023-07-29T05:07:35;23.40;58.20
48043;DHT22;33988;47.992;8.820;2023-07-29T05:10:02;23.40;58.20
48043;DHT22;33988;47.992;8.820;2023-07-29T05:12:32;23.40;58.30
48043;DHT22;33988;47.992;8.820;2023-07-29T05:14:59;23.40;58.20
48043;DHT22;33988;47.992;8.820;2023-07-29T05:17:31;23.40;58.20
48043;DHT22;33988;47.992;8.820;2023-07-29T05:19:58;23.40;58.20
48043;DHT22;33988;47.992;8.820;2023-07-29T05:22:27;23.40;58.20
48043;DHT22;33988;47.992;8.820;2023-07-29T05:24:54;23.40;58.20
48043;DHT22;33988;47.992;8.820;2023-07-29T05:27:24;23.40;58.20
48043;DHT22;33988;47.992;8.820;2023-07-29T05:29:51;23.40;58.20
48043;DHT22;33988;47.992;8.820;2023-07-29T05:32:18;23.40;58.20
48043;DHT22;33988;47.992;8.820;2023-07-29T05:34:45;23.40;58.30
48043;DHT22;33988;47.992;8.820;2023-07-29T05:37:12;23.50;58.50
48043;DHT22;33988;47.992;8.820;2023-07-29T05:39:41;23.40;58.40
48043;DHT22;33988;47.992;8.820;2023-07-29T05:42:08;23.40;58.40
48043;DHT22;33988;47.992;8.820;2023-07-29T05:44:37;23.50;58.50
48043;DHT22;33988;47.992;8.820;2023-07-29T05:47:08;23.50;58.60
48043;DHT22;33988;47.992;8.820;2023-07-29T05:49:35;23.50;58.70
48043;DHT22;33988;47.992;8.820;2023-07-29T05:52:02;23.50;58.70
48043;DHT22;33988;47.992;8.820;2023-07-29T05:54:29;23.50;58.80
48043;DHT22;33988;47.992;8.820;2023-07-29T05:56:56;23.60;58.80
48043;DHT22;33988;47.992;8.820;2023-07-29T05:59:27;23.60;58.80
48043;DHT22;33988;47.992;8.820;2023-07-29T06:01:56;23.60;58.80
48043;DHT22;33988;47.992;8.820;2023-07-29T06:04:23;23.70;58.90
48043;DHT22;33988;47.992;8.820;2023-07-29T06:06:50;23.70;58.90
48043;DHT22;33988;47.992;8.820;2023-07-29T06:09:17;23.70;59.00
48043;DHT22;33988;47.992;8.820;2023-07-29T06:11:44;23.70;59.10
48043;DHT22;33988;47.992;8.820;2023-07-29T06:14:11;23.80;59.10
48043;DHT22;33988;47.992;8.820;2023-07-29T06:16:38;23.80;59.10
48043;DHT22;33988;47.992;8.820;2023-07-29T06:19:05;23.80;59.10
48043;DHT22;33988;47.992;8.820;2023-07-29T06:21:35;23.90;59.30
48043;DHT22;33988;47.992;8.820;2023-07-29T06:24:02;23.90;59.30
48043;DHT22;33988;47.992;8.820;2023-07-29T06:26:29;24.00;59.40
48043;DHT22;33988;47.992;8.820;2023-07-29T06:28:59;24.00;59.50
48043;DHT22;33988;47.992;8.820;2023-07-29T06:31:28;24.10;59.60
48043;DHT22;33988;47.992;8.820;2023-07-29T06:34:02;24.20;59.70
48043;DHT22;33988;47.992;8.820;2023-07-29T06:36:28;24.20;60.50
48043;DHT22;33988;47.992;8.820;2023-07-29T06:38:58;24.30;59.90
48043;DHT22;33988;47.992;8.820;2023-07-29T06:41:24;24.40;60.00
48043;DHT22;33988;47.992;8.820;2023-07-29T06:43:51;24.40;60.10
48043;DHT22;33988;47.992;8.820;2023-07-29T06:46:18;24.50;60.10
48043;DHT22;33988;47.992;8.820;2023-07-29T06:48:47;24.60;60.00
48043;DHT22;33988;47.992;8.820;2023-07-29T06:51:17;24.60;59.80
48043;DHT22;33988;47.992;8.820;2023-07-29T06:53:46;24.70;59.80
48043;DHT22;33988;47.992;8.820;2023-07-29T06:56:14;24.80;59.80
48043;DHT22;33988;47.992;8.820;2023-07-29T06:58:41;24.80;60.40
48043;DHT22;33988;47.992;8.820;2023-07-29T07:01:10;24.90;59.70
48043;DHT22;33988;47.992;8.820;2023-07-29T07:03:37;24.90;59.70
48043;DHT22;33988;47.992;8.820;2023-07-29T07:06:05;25.00;59.70
48043;DHT22;33988;47.992;8.820;2023-07-29T07:08:34;25.00;59.80
48043;DHT22;33988;47.992;8.820;2023-07-29T07:11:01;25.10;59.90
48043;DHT22;33988;47.992;8.820;2023-07-29T07:13:30;25.10;59.90
48043;DHT22;33988;47.992;8.820;2023-07-29T07:15:57;25.20;59.80
48043;DHT22;33988;47.992;8.820;2023-07-29T07:18:26;25.30;59.70
48043;DHT22;33988;47.992;8.820;2023-07-29T07:20:53;25.30;59.50
48043;DHT22;33988;47.992;8.820;2023-07-29T07:23:21;25.40;59.50
48043;DHT22;33988;47.992;8.820;2023-07-29T07:25:47;25.50;59.40
48043;DHT22;33988;47.992;8.820;2023-07-29T07:28:14;25.50;59.40
48043;DHT22;33988;47.992;8.820;2023-07-29T07:30:41;25.60;59.40
48043;DHT22;33988;47.992;8.820;2023-07-29T07:33:11;25.60;59.30
48043;DHT22;33988;47.992;8.820;2023-07-29T07:35:38;25.70;59.30
48043;DHT22;33988;47.992;8.820;2023-07-29T07:38:07;25.80;59.20
48043;DHT22;33988;47.992;8.820;2023-07-29T07:40:38;25.90;59.20
48043;DHT22;33988;47.992;8.820;2023-07-29T07:43:05;25.90;59.20
48043;DHT22;33988;47.992;8.820;2023-07-29T07:45:34;26.00;59.20
48043;DHT22;33988;47.992;8.820;2023-07-29T07:48:02;26.10;59.10
48043;DHT22;33988;47.992;8.820;2023-07-29T07:50:29;26.20;59.00
48043;DHT22;33988;47.992;8.820;2023-07-29T07:53:01;26.20;58.80
48043;DHT22;33988;47.992;8.820;2023-07-29T07:55:28;26.40;58.60
48043;DHT22;33988;47.992;8.820;2023-07-29T07:57:55;26.40;58.40
48043;DHT22;33988;47.992;8.820;2023-07-29T08:00:22;26.50;58.30
48043;DHT22;33988;47.992;8.820;2023-07-29T08:02:52;26.50;58.20
48043;DHT22;33988;47.992;8.820;2023-07-29T08:05:19;26.60;58.00
48043;DHT22;33988;47.992;8.820;2023-07-29T08:07:48;26.60;57.90
48043;DHT22;33988;47.992;8.820;2023-07-29T08:10:15;26.60;57.80
48043;DHT22;33988;47.992;8.820;2023-07-29T08:12:42;26.60;58.10
48043;DHT22;33988;47.992;8.820;2023-07-29T08:15:11;26.60;57.70
48043;DHT22;33988;47.992;8.820;2023-07-29T08:17:38;26.60;57.70
48043;DHT22;33988;47.992;8.820;2023-07-29T08:20:05;26.60;57.70
48043;DHT22;33988;47.992;8.820;2023-07-29T08:22:33;26.50;57.70
48043;DHT22;33988;47.992;8.820;2023-07-29T08:25:00;26.50;58.00
48043;DHT22;33988;47.992;8.820;2023-07-29T08:27:27;26.50;58.30
48043;DHT22;33988;47.992;8.820;2023-07-29T08:29:54;26.40;58.40
48043;DHT22;33988;47.992;8.820;2023-07-29T08:32:21;26.40;58.60
48043;DHT22;33988;47.992;8.820;2023-07-29T08:34:50;26.50;58.90
48043;DHT22;33988;47.992;8.820;2023-07-29T08:37:17;26.50;59.10
48043;DHT22;33988;47.992;8.820;2023-07-29T08:39:47;26.50;59.10
48043;DHT22;33988;47.992;8.820;2023-07-29T08:42:16;26.50;59.20
48043;DHT22;33988;47.992;8.820;2023-07-29T08:44:49;26.60;59.60
48043;DHT22;33988;47.992;8.820;2023-07-29T08:47:16;26.60;59.80
48043;DHT22;33988;47.992;8.820;2023-07-29T08:49:45;26.60;59.90
48043;DHT22;33988;47.992;8.820;2023-07-29T08:52:16;26.70;59.90
48043;DHT22;33988;47.992;8.820;2023-07-29T08:54:43;26.70;60.00
48043;DHT22;33988;47.992;8.820;2023-07-29T08:57:10;26.80;60.20
48043;DHT22;33988;47.992;8.820;2023-07-29T08:59:37;26.90;60.20
48043;DHT22;33988;47.992;8.820;2023-07-29T09:02:04;26.90;60.10
48043;DHT22;33988;47.992;8.820;2023-07-29T09:04:32;27.00;59.80
48043;DHT22;33988;47.992;8.820;2023-07-29T09:06:59;27.00;59.50
48043;DHT22;33988;47.992;8.820;2023-07-29T09:09:26;27.10;59.30
48043;DHT22;33988;47.992;8.820;2023-07-29T09:11:57;27.10;59.20
48043;DHT22;33988;47.992;8.820;2023-07-29T09:14:24;27.10;59.00
48043;DHT22;33988;47.992;8.820;2023-07-29T09:16:51;27.10;59.00
48043;DHT22;33988;47.992;8.820;2023-07-29T09:19:20;27.10;59.30
48043;DHT22;33988;47.992;8.820;2023-07-29T09:21:53;27.10;59.30
48043;DHT22;33988;47.992;8.820;2023-07-29T09:24:21;27.10;59.30
48043;DHT22;33988;47.992;8.820;2023-07-29T09:26:51;27.10;59.20
48043;DHT22;33988;47.992;8.820;2023-07-29T09:29:22;27.10;59.30
48043;DHT22;33988;47.992;8.820;2023-07-29T09:31:50;27.10;59.40
48043;DHT22;33988;47.992;8.820;2023-07-29T09:34:17;27.20;59.60
48043;DHT22;33988;47.992;8.820;2023-07-29T09:36:44;27.20;59.70
48043;DHT22;33988;47.992;8.820;2023-07-29T09:39:12;27.20;59.60
48043;DHT22;33988;47.992;8.820;2023-07-29T09:41:39;27.20;59.60
48043;DHT22;33988;47.992;8.820;2023-07-29T09:44:10;27.20;59.70
48043;DHT22;33988;47.992;8.820;2023-07-29T09:46:38;27.30;60.00
48043;DHT22;33988;47.992;8.820;2023-07-29T09:49:07;27.30;60.00
48043;DHT22;33988;47.992;8.820;2023-07-29T09:51:38;27.40;60.20
48043;DHT22;33988;47.992;8.820;2023-07-29T09:54:09;27.40;60.00
48043;DHT22;33988;47.992;8.820;2023-07-29T09:56:42;27.50;59.90
48043;DHT22;33988;47.992;8.820;2023-07-29T09:59:11;27.50;59.70
48043;DHT22;33988;47.992;8.820;2023-07-29T10:01:41;27.50;59.40
48043;DHT22;33988;47.992;8.820;2023-07-29T10:04:09;27.50;59.10
48043;DHT22;33988;47.992;8.820;2023-07-29T10:06:39;27.60;59.00
48043;DHT22;33988;47.992;8.820;2023-07-29T10:09:11;27.60;58.90
48043;DHT22;33988;47.992;8.820;2023-07-29T10:11:40;27.60;58.90
48043;DHT22;33988;47.992;8.820;2023-07-29T10:14:08;27.60;59.10
48043;DHT22;33988;47.992;8.820;2023-07-29T10:16:39;27.60;59.30
48043;DHT22;33988;47.992;8.820;2023-07-29T10:19:09;27.60;59.30
48043;DHT22;33988;47.992;8.820;2023-07-29T10:21:42;27.70;59.20
48043;DHT22;33988;47.992;8.820;2023-07-29T10:24:15;27.70;59.10
48043;DHT22;33988;47.992;8.820;2023-07-29T10:27:00;27.70;58.90
48043;DHT22;33988;47.992;8.820;2023-07-29T10:29:31;27.70;58.80
48043;DHT22;33988;47.992;8.820;2023-07-29T10:32:02;27.80;58.50
48043;DHT22;33988;47.992;8.820;2023-07-29T10:34:35;27.80;58.40
48043;DHT22;33988;47.992;8.820;2023-07-29T10:37:03;27.80;58.30
48043;DHT22;33988;47.992;8.820;2023-07-29T10:39:40;27.90;58.10
48043;DHT22;33988;47.992;8.820;2023-07-29T10:42:19;27.90;57.70
48043;DHT22;33988;47.992;8.820;2023-07-29T10:44:53;27.90;57.40
48043;DHT22;33988;47.992;8.820;2023-07-29T10:47:27;27.90;57.30
48043;DHT22;33988;47.992;8.820;2023-07-29T10:49:59;28.00;56.90
48043;DHT22;33988;47.992;8.820;2023-07-29T10:55:03;28.00;56.20
48043;DHT22;33988;47.992;8.820;2023-07-29T10:57:38;28.00;56.30
48043;DHT22;33988;47.992;8.820;2023-07-29T11:00:08;28.00;56.30
48043;DHT22;33988;47.992;8.820;2023-07-29T11:02:37;28.10;56.20
48043;DHT22;33988;47.992;8.820;2023-07-29T11:05:06;28.10;56.50
48043;DHT22;33988;47.992;8.820;2023-07-29T11:07:45;28.10;56.70
48043;DHT22;33988;47.992;8.820;2023-07-29T11:10:16;28.10;56.20
48043;DHT22;33988;47.992;8.820;2023-07-29T11:12:47;28.20;56.40
48043;DHT22;33988;47.992;8.820;2023-07-29T11:17:56;28.00;56.50
48043;DHT22;33988;47.992;8.820;2023-07-29T11:20:30;28.30;55.80
48043;DHT22;33988;47.992;8.820;2023-07-29T11:23:00;28.30;55.50
48043;DHT22;33988;47.992;8.820;2023-07-29T11:25:29;28.40;55.20
48043;DHT22;33988;47.992;8.820;2023-07-29T11:28:00;28.40;55.10
48043;DHT22;33988;47.992;8.820;2023-07-29T11:30:32;28.40;54.70
48043;DHT22;33988;47.992;8.820;2023-07-29T11:33:00;28.50;54.10
48043;DHT22;33988;47.992;8.820;2023-07-29T11:35:27;28.50;53.90
48043;DHT22;33988;47.992;8.820;2023-07-29T11:37:55;28.50;53.80
48043;DHT22;33988;47.992;8.820;2023-07-29T11:40:27;28.50;54.20
48043;DHT22;33988;47.992;8.820;2023-07-29T11:42:56;28.60;53.00
48043;DHT22;33988;47.992;8.820;2023-07-29T11:45:23;28.60;53.20
48043;DHT22;33988;47.992;8.820;2023-07-29T11:47:58;28.60;52.90
48043;DHT22;33988;47.992;8.820;2023-07-29T11:50:25;28.60;52.60
48043;DHT22;33988;47.992;8.820;2023-07-29T11:52:54;28.70;52.30
48043;DHT22;33988;47.992;8.820;2023-07-29T11:55:21;28.70;52.20
48043;DHT22;33988;47.992;8.820;2023-07-29T11:57:51;28.70;52.30
48043;DHT22;33988;47.992;8.820;2023-07-29T12:00:19;28.70;52.10
48043;DHT22;33988;47.992;8.820;2023-07-29T12:02:48;28.70;52.10
48043;DHT22;33988;47.992;8.820;2023-07-29T12:05:15;28.80;51.80
48043;DHT22;33988;47.992;8.820;2023-07-29T12:07:46;28.80;51.70
48043;DHT22;33988;47.992;8.820;2023-07-29T12:10:13;28.80;51.20
48043;DHT22;33988;47.992;8.820;2023-07-29T12:12:48;28.70;51.30
48043;DHT22;33988;47.992;8.820;2023-07-29T12:15:26;28.70;51.10
48043;DHT22;33988;47.992;8.820;2023-07-29T12:17:58;28.70;51.20
48043;DHT22;33988;47.992;8.820;2023-07-29T12:20:27;28.70;51.30
48043;DHT22;33988;47.992;8.820;2023-07-29T12:22:59;28.80;51.20
48043;DHT22;33988;47.992;8.820;2023-07-29T12:25:34;28.80;50.90
48043;DHT22;33988;47.992;8.820;2023-07-29T12:28:05;28.80;50.60
48043;DHT22;33988;47.992;8.820;2023-07-29T12:30:33;28.80;50.50
48043;DHT22;33988;47.992;8.820;2023-07-29T12:33:02;28.90;50.60
48043;DHT22;33988;47.992;8.820;2023-07-29T12:35:39;28.90;50.50
48043;DHT22;33988;47.992;8.820;2023-07-29T12:38:06;28.90;50.20
48043;DHT22;33988;47.992;8.820;2023-07-29T12:40:38;28.90;50.40
48043;DHT22;33988;47.992;8.820;2023-07-29T12:43:05;28.90;50.10
48043;DHT22;33988;47.992;8.820;2023-07-29T12:45:37;28.90;50.20
48043;DHT22;33988;47.992;8.820;2023-07-29T12:48:07;28.90;50.10
48043;DHT22;33988;47.992;8.820;2023-07-29T12:50:35;28.90;49.90
48043;DHT22;33988;47.992;8.820;2023-07-29T12:53:06;28.90;49.90
48043;DHT22;33988;47.992;8.820;2023-07-29T12:55:34;28.90;49.80
48043;DHT22;33988;47.992;8.820;2023-07-29T12:58:01;28.60;50.40
48043;DHT22;33988;47.992;8.820;2023-07-29T13:00:28;28.80;50.00
48043;DHT22;33988;47.992;8.820;2023-07-29T13:02:55;28.90;49.80
48043;DHT22;33988;47.992;8.820;2023-07-29T13:05:22;28.90;49.80
48043;DHT22;33988;47.992;8.820;2023-07-29T13:07:52;28.90;49.70
48043;DHT22;33988;47.992;8.820;2023-07-29T13:10:19;28.80;49.70
48043;DHT22;33988;47.992;8.820;2023-07-29T13:12:46;28.80;49.70
48043;DHT22;33988;47.992;8.820;2023-07-29T13:15:13;28.90;50.40
48043;DHT22;33988;47.992;8.820;2023-07-29T13:17:42;28.90;49.60
48043;DHT22;33988;47.992;8.820;2023-07-29T13:20:09;28.90;49.50
48043;DHT22;33988;47.992;8.820;2023-07-29T13:22:37;28.80;49.60
48043;DHT22;33988;47.992;8.820;2023-07-29T13:25:04;28.80;49.50
48043;DHT22;33988;47.992;8.820;2023-07-29T13:27:31;28.80;49.60
48043;DHT22;33988;47.992;8.820;2023-07-29T13:29:58;28.80;49.70
48043;DHT22;33988;47.992;8.820;2023-07-29T13:32:27;28.80;49.70
48043;DHT22;33988;47.992;8.820;2023-07-29T13:34:54;28.80;49.70
48043;DHT22;33988;47.992;8.820;2023-07-29T13:37:21;28.80;49.80
48043;DHT22;33988;47.992;8.820;2023-07-29T13:39:48;28.80;49.70
48043;DHT22;33988;47.992;8.820;2023-07-29T13:42:15;28.80;49.40
48043;DHT22;33988;47.992;8.820;2023-07-29T13:44:44;28.80;49.20
48043;DHT22;33988;47.992;8.820;2023-07-29T13:47:11;28.80;49.50
48043;DHT22;33988;47.992;8.820;2023-07-29T13:49:40;28.80;49.50
48043;DHT22;33988;47.992;8.820;2023-07-29T13:52:09;28.70;49.30
48043;DHT22;33988;47.992;8.820;2023-07-29T13:54:36;28.70;49.20
48043;DHT22;33988;47.992;8.820;2023-07-29T13:57:05;28.70;50.10
48043;DHT22;33988;47.992;8.820;2023-07-29T13:59:36;28.70;49.40
48043;DHT22;33988;47.992;8.820;2023-07-29T14:02:06;28.70;49.30
48043;DHT22;33988;47.992;8.820;2023-07-29T14:04:38;28.70;49.10
48043;DHT22;33988;47.992;8.820;2023-07-29T14:07:05;28.60;49.00
48043;DHT22;33988;47.992;8.820;2023-07-29T14:09:32;28.70;49.00
48043;DHT22;33988;47.992;8.820;2023-07-29T14:11:59;28.60;48.90
48043;DHT22;33988;47.992;8.820;2023-07-29T14:14:28;28.60;49.10
48043;DHT22;33988;47.992;8.820;2023-07-29T14:16:58;28.70;49.10
48043;DHT22;33988;47.992;8.820;2023-07-29T14:19:27;28.60;49.10
48043;DHT22;33988;47.992;8.820;2023-07-29T14:21:57;28.60;49.10
48043;DHT22;33988;47.992;8.820;2023-07-29T14:24:24;28.60;49.20
48043;DHT22;33988;47.992;8.820;2023-07-29T14:26:51;28.50;49.50
48043;DHT22;33988;47.992;8.820;2023-07-29T14:29:18;28.60;50.00
48043;DHT22;33988;47.992;8.820;2023-07-29T14:31:45;28.50;50.60
48043;DHT22;33988;47.992;8.820;2023-07-29T14:34:12;28.50;51.10
48043;DHT22;33988;47.992;8.820;2023-07-29T14:36:39;28.40;51.50
48043;DHT22;33988;47.992;8.820;2023-07-29T14:39:06;28.30;51.90
48043;DHT22;33988;47.992;8.820;2023-07-29T14:41:34;28.30;52.30
48043;DHT22;33988;47.992;8.820;2023-07-29T14:44:03;28.30;52.50
48043;DHT22;33988;47.992;8.820;2023-07-29T14:46:30;28.30;52.70
48043;DHT22;33988;47.992;8.820;2023-07-29T14:48:59;28.30;53.20
48043;DHT22;33988;47.992;8.820;2023-07-29T14:51:26;28.20;53.30
48043;DHT22;33988;47.992;8.820;2023-07-29T14:53:53;28.20;53.50
48043;DHT22;33988;47.992;8.820;2023-07-29T14:56:23;28.20;53.40
48043;DHT22;33988;47.992;8.820;2023-07-29T14:58:50;28.20;53.60
48043;DHT22;33988;47.992;8.820;2023-07-29T15:01:17;28.10;53.60
48043;DHT22;33988;47.992;8.820;2023-07-29T15:03:44;28.10;53.70
48043;DHT22;33988;47.992;8.820;2023-07-29T15:06:16;28.10;53.80
48043;DHT22;33988;47.992;8.820;2023-07-29T15:08:43;28.10;53.90
48043;DHT22;33988;47.992;8.820;2023-07-29T15:11:10;28.00;53.70
48043;DHT22;33988;47.992;8.820;2023-07-29T15:13:42;28.00;53.60
48043;DHT22;33988;47.992;8.820;2023-07-29T15:16:09;28.00;53.60
48043;DHT22;33988;47.992;8.820;2023-07-29T15:18:40;28.00;53.60
48043;DHT22;33988;47.992;8.820;2023-07-29T15:21:12;27.90;53.50
48043;DHT22;33988;47.992;8.820;2023-07-29T15:23:41;27.90;53.60
48043;DHT22;33988;47.992;8.820;2023-07-29T15:26:11;27.90;53.60
48043;DHT22;33988;47.992;8.820;2023-07-29T15:28:38;27.90;53.50
48043;DHT22;33988;47.992;8.820;2023-07-29T15:31:05;27.80;54.10
48043;DHT22;33988;47.992;8.820;2023-07-29T15:33:32;27.80;53.50
48043;DHT22;33988;47.992;8.820;2023-07-29T15:36:06;27.80;53.60
48043;DHT22;33988;47.992;8.820;2023-07-29T15:38:33;27.70;53.60
48043;DHT22;33988;47.992;8.820;2023-07-29T15:41:02;27.70;53.60
48043;DHT22;33988;47.992;8.820;2023-07-29T15:43:29;27.60;53.60
48043;DHT22;33988;47.992;8.820;2023-07-29T15:45:59;27.60;53.60
48043;DHT22;33988;47.992;8.820;2023-07-29T15:48:26;27.50;53.70